sensor_id;sensor_type;location;lat;lon;timestamp;pressure;altitude;pressure_sealevel;temperature;humidity
78299;BME280;67556;55.656;12.590;2023-03-21T00:00:01;101453.97;;;4.80;80.92
78299;BME280;67556;55.656;12.590;2023-03-21T00:02:28;101456.19;;;4.73;80.24
78299;BME280;67556;55.656;12.590;2023-03-21T00:04:54;101446.63;;;4.75;79.85
78299;BME280;67556;55.656;12.590;2023-03-21T00:07:21;101443.84;;;4.86;79.45
78299;BME280;67556;55.656;12.590;2023-03-21T00:09:47;101452.66;;;4.86;79.51
78299;BME280;67556;55.656;12.590;2023-03-21T00:12:14;101456.31;;;4.88;79.62
78299;BME280;67556;55.656;12.590;2023-03-21T00:14:41;101455.41;;;4.88;79.79
78299;BME280;67556;55.656;12.590;2023-03-21T00:17:11;101455.34;;;4.61;80.30
78299;BME280;67556;55.656;12.590;2023-03-21T00:19:41;101458.63;;;4.84;79.96
78299;BME280;67556;55.656;12.590;2023-03-21T00:22:09;101454.50;;;4.87;79.50
78299;BME280;67556;55.656;12.590;2023-03-21T00:24:36;101455.03;;;4.57;80.57
78299;BME280;67556;55.656;12.590;2023-03-21T00:27:02;101459.22;;;4.16;82.81
78299;BME280;67556;55.656;12.590;2023-03-21T00:29:29;101459.06;;;3.90;84.35
78299;BME280;67556;55.656;12.590;2023-03-21T00:31:55;101450.59;;;3.82;85.17
78299;BME280;67556;55.656;12.590;2023-03-21T00:34:29;101461.47;;;3.87;84.77
78299;BME280;67556;55.656;12.590;2023-03-21T00:37:03;101466.31;;;3.81;84.80
78299;BME280;67556;55.656;12.590;2023-03-21T00:39:31;101463.34;;;4.13;84.05
78299;BME280;67556;55.656;12.590;2023-03-21T00:41:58;101455.41;;;4.24;82.70
78299;BME280;67556;55.656;12.590;2023-03-21T00:44:25;101467.34;;;4.19;83.09
78299;BME280;67556;55.656;12.590;2023-03-21T00:46:52;101458.84;;;3.87;83.96
78299;BME280;67556;55.656;12.590;2023-03-21T00:49:18;101462.53;;;3.77;85.38
78299;BME280;67556;55.656;12.590;2023-03-21T00:51:47;101454.63;;;3.89;83.87
78299;BME280;67556;55.656;12.590;2023-03-21T00:54:16;101460.47;;;3.85;84.46
78299;BME280;67556;55.656;12.590;2023-03-21T00:56:43;101441.75;;;3.93;84.19
78299;BME280;67556;55.656;12.590;2023-03-21T00:59:12;101439.25;;;3.83;84.93
78299;BME280;67556;55.656;12.590;2023-03-21T01:01:38;101448.56;;;3.78;84.88
78299;BME280;67556;55.656;12.590;2023-03-21T01:04:05;101438.66;;;3.99;83.68
78299;BME280;67556;55.656;12.590;2023-03-21T01:06:35;101445.56;;;4.22;83.24
78299;BME280;67556;55.656;12.590;2023-03-21T01:09:06;101440.81;;;4.30;82.79
78299;BME280;67556;55.656;12.590;2023-03-21T01:11:33;101434.53;;;4.53;81.45
78299;BME280;67556;55.656;12.590;2023-03-21T01:14:00;101427.47;;;4.40;81.66
78299;BME280;67556;55.656;12.590;2023-03-21T01:16:26;101434.47;;;4.14;82.88
78299;BME280;67556;55.656;12.590;2023-03-21T01:18:53;101429.84;;;4.23;81.95
78299;BME280;67556;55.656;12.590;2023-03-21T01:21:20;101427.16;;;4.10;81.83
78299;BME280;67556;55.656;12.590;2023-03-21T01:23:46;101434.34;;;3.88;83.92
78299;BME280;67556;55.656;12.590;2023-03-21T01:26:14;101434.72;;;3.69;84.26
78299;BME280;67556;55.656;12.590;2023-03-21T01:28:42;101432.56;;;3.63;84.57
78299;BME280;67556;55.656;12.590;2023-03-21T01:31:10;101433.16;;;3.36;85.33
78299;BME280;67556;55.656;12.590;2023-03-21T01:33:38;101439.81;;;3.42;85.17
78299;BME280;67556;55.656;12.590;2023-03-21T01:36:06;101437.28;;;3.56;85.47
78299;BME280;67556;55.656;12.590;2023-03-21T01:38:33;101432.50;;;3.87;84.14
78299;BME280;67556;55.656;12.590;2023-03-21T01:41:00;101438.22;;;3.93;83.67
78299;BME280;67556;55.656;12.590;2023-03-21T01:43:30;101433.81;;;4.05;82.18
78299;BME280;67556;55.656;12.590;2023-03-21T01:46:19;101432.28;;;3.84;83.19
78299;BME280;67556;55.656;12.590;2023-03-21T01:48:50;101430.09;;;3.90;83.06
78299;BME280;67556;55.656;12.590;2023-03-21T01:51:20;101421.47;;;3.44;84.66
78299;BME280;67556;55.656;12.590;2023-03-21T01:53:49;101432.25;;;3.47;84.54
78299;BME280;67556;55.656;12.590;2023-03-21T01:56:22;101430.19;;;3.31;84.97
78299;BME280;67556;55.656;12.590;2023-03-21T01:58:54;101431.44;;;3.48;84.75
78299;BME280;67556;55.656;12.590;2023-03-21T02:01:24;101424.72;;;3.88;83.27
78299;BME280;67556;55.656;12.590;2023-03-21T02:03:50;101430.47;;;4.08;82.11
78299;BME280;67556;55.656;12.590;2023-03-21T02:06:24;101427.25;;;4.12;81.52
78299;BME280;67556;55.656;12.590;2023-03-21T02:08:56;101427.78;;;3.94;82.18
78299;BME280;67556;55.656;12.590;2023-03-21T02:11:23;101429.63;;;3.47;83.66
78299;BME280;67556;55.656;12.590;2023-03-21T02:13:52;101420.09;;;3.49;84.60
78299;BME280;67556;55.656;12.590;2023-03-21T02:16:27;101412.81;;;3.82;82.87
78299;BME280;67556;55.656;12.590;2023-03-21T02:19:03;101420.19;;;3.99;81.90
78299;BME280;67556;55.656;12.590;2023-03-21T02:21:58;101418.31;;;3.85;81.53
78299;BME280;67556;55.656;12.590;2023-03-21T02:27:28;101419.94;;;4.08;80.44
78299;BME280;67556;55.656;12.590;2023-03-21T02:30:29;101424.28;;;4.07;79.19
78299;BME280;67556;55.656;12.590;2023-03-21T02:33:15;101415.31;;;3.92;79.78
78299;BME280;67556;55.656;12.590;2023-03-21T02:35:57;101416.25;;;3.81;79.99
78299;BME280;67556;55.656;12.590;2023-03-21T02:38:31;101421.38;;;3.79;80.30
78299;BME280;67556;55.656;12.590;2023-03-21T02:41:04;101419.06;;;3.47;82.62
78299;BME280;67556;55.656;12.590;2023-03-21T02:43:41;101411.41;;;3.50;83.59
78299;BME280;67556;55.656;12.590;2023-03-21T02:46:14;101411.50;;;3.63;80.64
78299;BME280;67556;55.656;12.590;2023-03-21T02:48:46;101420.28;;;3.75;78.32
78299;BME280;67556;55.656;12.590;2023-03-21T02:51:21;101425.75;;;3.79;78.73
78299;BME280;67556;55.656;12.590;2023-03-21T02:53:53;101417.41;;;3.72;79.32
78299;BME280;67556;55.656;12.590;2023-03-21T02:56:23;101425.22;;;3.71;78.54
78299;BME280;67556;55.656;12.590;2023-03-21T02:58:51;101434.16;;;3.61;77.39
78299;BME280;67556;55.656;12.590;2023-03-21T03:01:19;101432.09;;;3.57;78.03
78299;BME280;67556;55.656;12.590;2023-03-21T03:03:46;101438.84;;;3.54;78.28
78299;BME280;67556;55.656;12.590;2023-03-21T03:06:15;101443.22;;;3.53;78.71
78299;BME280;67556;55.656;12.590;2023-03-21T03:08:47;101438.31;;;3.46;78.15
78299;BME280;67556;55.656;12.590;2023-03-21T03:11:25;101428.38;;;3.42;78.41
78299;BME280;67556;55.656;12.590;2023-03-21T03:14:08;101434.31;;;3.39;78.64
78299;BME280;67556;55.656;12.590;2023-03-21T03:16:46;101432.16;;;3.34;78.11
78299;BME280;67556;55.656;12.590;2023-03-21T03:19:22;101420.13;;;3.25;78.64
78299;BME280;67556;55.656;12.590;2023-03-21T03:21:58;101432.34;;;3.37;78.85
78299;BME280;67556;55.656;12.590;2023-03-21T03:24:28;101444.59;;;3.36;78.61
78299;BME280;67556;55.656;12.590;2023-03-21T03:26:59;101431.34;;;3.35;79.10
78299;BME280;67556;55.656;12.590;2023-03-21T03:29:31;101430.44;;;3.34;77.48
78299;BME280;67556;55.656;12.590;2023-03-21T03:32:01;101426.06;;;3.23;77.51
78299;BME280;67556;55.656;12.590;2023-03-21T03:34:32;101426.31;;;3.26;77.29
78299;BME280;67556;55.656;12.590;2023-03-21T03:37:05;101435.47;;;3.08;78.23
78299;BME280;67556;55.656;12.590;2023-03-21T03:39:36;101432.59;;;3.05;77.88
78299;BME280;67556;55.656;12.590;2023-03-21T03:42:07;101436.25;;;2.95;78.77
78299;BME280;67556;55.656;12.590;2023-03-21T03:44:39;101443.13;;;3.05;77.25
78299;BME280;67556;55.656;12.590;2023-03-21T03:47:08;101444.38;;;3.10;77.02
78299;BME280;67556;55.656;12.590;2023-03-21T03:49:40;101451.84;;;3.04;76.63
78299;BME280;67556;55.656;12.590;2023-03-21T03:52:16;101447.69;;;3.07;75.71
78299;BME280;67556;55.656;12.590;2023-03-21T03:54:45;101455.03;;;2.99;75.45
78299;BME280;67556;55.656;12.590;2023-03-21T03:57:15;101448.63;;;2.96;75.74
78299;BME280;67556;55.656;12.590;2023-03-21T03:59:43;101447.72;;;2.95;76.25
78299;BME280;67556;55.656;12.590;2023-03-21T04:02:10;101437.03;;;2.94;76.34
78299;BME280;67556;55.656;12.590;2023-03-21T04:04:37;101436.03;;;2.92;75.58
78299;BME280;67556;55.656;12.590;2023-03-21T04:07:04;101451.69;;;2.90;75.95
78299;BME280;67556;55.656;12.590;2023-03-21T04:09:33;101451.53;;;2.77;75.71
78299;BME280;67556;55.656;12.590;2023-03-21T04:12:00;101454.31;;;2.79;75.71
78299;BME280;67556;55.656;12.590;2023-03-21T04:14:28;101446.84;;;2.73;75.97
78299;BME280;67556;55.656;12.590;2023-03-21T04:16:56;101448.31;;;2.69;77.02
78299;BME280;67556;55.656;12.590;2023-03-21T04:19:23;101445.84;;;2.71;76.18
78299;BME280;67556;55.656;12.590;2023-03-21T04:21:50;101440.44;;;2.69;75.49
78299;BME280;67556;55.656;12.590;2023-03-21T04:24:18;101436.19;;;2.60;76.65
78299;BME280;67556;55.656;12.590;2023-03-21T04:26:45;101438.97;;;2.61;76.13
78299;BME280;67556;55.656;12.590;2023-03-21T04:29:11;101434.34;;;2.47;76.92
78299;BME280;67556;55.656;12.590;2023-03-21T04:31:40;101429.22;;;2.60;77.36
78299;BME280;67556;55.656;12.590;2023-03-21T04:34:07;101428.19;;;2.58;77.69
78299;BME280;67556;55.656;12.590;2023-03-21T04:36:37;101432.66;;;2.59;77.48
78299;BME280;67556;55.656;12.590;2023-03-21T04:39:07;101439.41;;;2.67;77.80
78299;BME280;67556;55.656;12.590;2023-03-21T04:41:37;101431.84;;;2.60;79.81
78299;BME280;67556;55.656;12.590;2023-03-21T04:44:05;101438.72;;;2.58;81.75
78299;BME280;67556;55.656;12.590;2023-03-21T04:46:34;101446.72;;;2.60;82.31
78299;BME280;67556;55.656;12.590;2023-03-21T04:49:02;101441.41;;;2.48;82.58
78299;BME280;67556;55.656;12.590;2023-03-21T04:51:30;101454.25;;;2.55;82.76
78299;BME280;67556;55.656;12.590;2023-03-21T04:53:56;101454.44;;;2.46;82.19
78299;BME280;67556;55.656;12.590;2023-03-21T04:56:23;101448.94;;;2.43;82.61
78299;BME280;67556;55.656;12.590;2023-03-21T04:58:56;101457.19;;;2.48;82.38
78299;BME280;67556;55.656;12.590;2023-03-21T05:01:23;101460.63;;;2.47;82.00
78299;BME280;67556;55.656;12.590;2023-03-21T05:03:50;101463.34;;;2.48;82.33
78299;BME280;67556;55.656;12.590;2023-03-21T05:06:18;101457.75;;;2.44;82.11
78299;BME280;67556;55.656;12.590;2023-03-21T05:08:45;101452.69;;;2.35;82.08
78299;BME280;67556;55.656;12.590;2023-03-21T05:11:14;101454.44;;;2.46;82.94
78299;BME280;67556;55.656;12.590;2023-03-21T05:13:41;101454.50;;;2.58;82.30
78299;BME280;67556;55.656;12.590;2023-03-21T05:16:08;101463.50;;;2.50;82.41
78299;BME280;67556;55.656;12.590;2023-03-21T05:18:36;101452.63;;;2.45;82.15
78299;BME280;67556;55.656;12.590;2023-03-21T05:21:05;101441.91;;;2.54;81.80
78299;BME280;67556;55.656;12.590;2023-03-21T05:23:36;101438.47;;;2.55;81.25
78299;BME280;67556;55.656;12.590;2023-03-21T05:26:05;101436.41;;;2.51;81.33
78299;BME280;67556;55.656;12.590;2023-03-21T05:28:32;101439.19;;;2.64;81.63
78299;BME280;67556;55.656;12.590;2023-03-21T05:31:01;101438.75;;;2.70;80.34
78299;BME280;67556;55.656;12.590;2023-03-21T05:33:27;101440.94;;;2.75;80.24
78299;BME280;67556;55.656;12.590;2023-03-21T05:35:55;101443.06;;;2.69;80.28
78299;BME280;67556;55.656;12.590;2023-03-21T05:38:22;101441.38;;;2.70;79.61
78299;BME280;67556;55.656;12.590;2023-03-21T05:40:51;101444.94;;;2.70;78.53
78299;BME280;67556;55.656;12.590;2023-03-21T05:43:19;101445.47;;;2.66;79.01
78299;BME280;67556;55.656;12.590;2023-03-21T05:45:45;101441.13;;;2.67;79.48
78299;BME280;67556;55.656;12.590;2023-03-21T05:48:12;101439.19;;;2.64;78.97
78299;BME280;67556;55.656;12.590;2023-03-21T05:50:39;101428.44;;;2.61;79.37
78299;BME280;67556;55.656;12.590;2023-03-21T05:53:06;101444.56;;;2.66;79.00
78299;BME280;67556;55.656;12.590;2023-03-21T05:55:39;101448.31;;;2.69;79.14
78299;BME280;67556;55.656;12.590;2023-03-21T05:58:07;101446.16;;;2.64;80.29
78299;BME280;67556;55.656;12.590;2023-03-21T06:00:35;101442.41;;;2.72;79.46
78299;BME280;67556;55.656;12.590;2023-03-21T06:03:02;101445.47;;;2.66;79.81
78299;BME280;67556;55.656;12.590;2023-03-21T06:05:30;101449.94;;;2.67;80.15
78299;BME280;67556;55.656;12.590;2023-03-21T06:07:56;101457.03;;;2.68;80.16
78299;BME280;67556;55.656;12.590;2023-03-21T06:10:24;101456.22;;;2.69;81.90
78299;BME280;67556;55.656;12.590;2023-03-21T06:12:51;101443.69;;;2.89;80.95
78299;BME280;67556;55.656;12.590;2023-03-21T06:15:21;101447.13;;;2.88;80.73
78299;BME280;67556;55.656;12.590;2023-03-21T06:17:48;101450.66;;;2.88;80.01
78299;BME280;67556;55.656;12.590;2023-03-21T06:20:16;101443.13;;;2.93;79.63
78299;BME280;67556;55.656;12.590;2023-03-21T06:22:43;101432.13;;;2.98;79.73
78299;BME280;67556;55.656;12.590;2023-03-21T06:25:11;101444.28;;;2.96;79.61
78299;BME280;67556;55.656;12.590;2023-03-21T06:27:39;101446.34;;;3.00;79.85
78299;BME280;67556;55.656;12.590;2023-03-21T06:30:07;101445.44;;;3.00;79.82
78299;BME280;67556;55.656;12.590;2023-03-21T06:32:35;101451.22;;;2.84;80.08
78299;BME280;67556;55.656;12.590;2023-03-21T06:35:03;101449.09;;;3.14;80.61
78299;BME280;67556;55.656;12.590;2023-03-21T06:37:32;101442.00;;;3.24;79.42
78299;BME280;67556;55.656;12.590;2023-03-21T06:40:00;101445.97;;;3.19;79.81
78299;BME280;67556;55.656;12.590;2023-03-21T06:42:27;101452.50;;;3.36;80.52
78299;BME280;67556;55.656;12.590;2023-03-21T06:44:56;101441.78;;;3.33;80.22
78299;BME280;67556;55.656;12.590;2023-03-21T06:47:23;101449.63;;;3.57;79.17
78299;BME280;67556;55.656;12.590;2023-03-21T06:49:53;101446.75;;;3.65;79.28
78299;BME280;67556;55.656;12.590;2023-03-21T06:52:19;101447.22;;;3.71;79.76
78299;BME280;67556;55.656;12.590;2023-03-21T06:54:50;101441.56;;;3.79;79.36
78299;BME280;67556;55.656;12.590;2023-03-21T06:57:17;101439.47;;;3.86;78.95
78299;BME280;67556;55.656;12.590;2023-03-21T06:59:47;101432.50;;;3.87;79.06
78299;BME280;67556;55.656;12.590;2023-03-21T07:02:13;101450.00;;;3.98;79.02
78299;BME280;67556;55.656;12.590;2023-03-21T07:04:46;101445.63;;;3.98;78.98
78299;BME280;67556;55.656;12.590;2023-03-21T07:07:15;101440.56;;;4.13;78.90
78299;BME280;67556;55.656;12.590;2023-03-21T07:09:42;101440.28;;;4.22;78.68
78299;BME280;67556;55.656;12.590;2023-03-21T07:12:08;101445.31;;;4.31;78.82
78299;BME280;67556;55.656;12.590;2023-03-21T07:14:36;101439.63;;;4.38;79.15
78299;BME280;67556;55.656;12.590;2023-03-21T07:17:06;101441.19;;;4.47;79.25
78299;BME280;67556;55.656;12.590;2023-03-21T07:19:34;101438.06;;;4.53;79.22
78299;BME280;67556;55.656;12.590;2023-03-21T07:22:01;101441.34;;;4.62;79.46
78299;BME280;67556;55.656;12.590;2023-03-21T07:24:31;101446.63;;;4.75;79.93
78299;BME280;67556;55.656;12.590;2023-03-21T07:27:05;101448.38;;;4.88;80.66
78299;BME280;67556;55.656;12.590;2023-03-21T07:29:32;101442.94;;;4.98;80.66
78299;BME280;67556;55.656;12.590;2023-03-21T07:32:00;101450.78;;;5.10;80.90
78299;BME280;67556;55.656;12.590;2023-03-21T07:34:27;101443.34;;;5.18;80.62
78299;BME280;67556;55.656;12.590;2023-03-21T07:36:58;101444.00;;;5.27;80.79
78299;BME280;67556;55.656;12.590;2023-03-21T07:39:26;101440.00;;;5.34;81.09
78299;BME280;67556;55.656;12.590;2023-03-21T07:42:01;101446.50;;;5.39;80.61
78299;BME280;67556;55.656;12.590;2023-03-21T07:44:28;101444.78;;;5.53;80.38
78299;BME280;67556;55.656;12.590;2023-03-21T07:46:58;101439.91;;;5.59;80.48
78299;BME280;67556;55.656;12.590;2023-03-21T07:49:25;101445.06;;;5.70;79.88
78299;BME280;67556;55.656;12.590;2023-03-21T07:51:52;101446.88;;;5.71;80.05
78299;BME280;67556;55.656;12.590;2023-03-21T07:54:22;101437.94;;;5.83;80.30
78299;BME280;67556;55.656;12.590;2023-03-21T07:56:49;101429.50;;;5.75;79.48
78299;BME280;67556;55.656;12.590;2023-03-21T07:59:20;101430.66;;;5.65;79.74
78299;BME280;67556;55.656;12.590;2023-03-21T08:01:49;101429.13;;;5.69;80.29
78299;BME280;67556;55.656;12.590;2023-03-21T08:04:16;101430.41;;;5.75;80.88
78299;BME280;67556;55.656;12.590;2023-03-21T08:06:43;101434.47;;;5.84;80.56
78299;BME280;67556;55.656;12.590;2023-03-21T08:09:10;101438.13;;;5.72;81.03
78299;BME280;67556;55.656;12.590;2023-03-21T08:11:39;101432.50;;;5.53;81.49
78299;BME280;67556;55.656;12.590;2023-03-21T08:14:10;101437.06;;;5.29;82.80
78299;BME280;67556;55.656;12.590;2023-03-21T08:16:40;101447.53;;;5.41;82.76
78299;BME280;67556;55.656;12.590;2023-03-21T08:19:09;101442.44;;;5.31;83.33
78299;BME280;67556;55.656;12.590;2023-03-21T08:21:36;101436.97;;;5.28;83.36
78299;BME280;67556;55.656;12.590;2023-03-21T08:24:04;101442.13;;;5.26;83.28
78299;BME280;67556;55.656;12.590;2023-03-21T08:26:34;101430.38;;;5.21;83.95
78299;BME280;67556;55.656;12.590;2023-03-21T08:29:05;101432.59;;;5.28;84.09
78299;BME280;67556;55.656;12.590;2023-03-21T08:31:32;101427.41;;;5.16;84.13
78299;BME280;67556;55.656;12.590;2023-03-21T08:34:02;101436.75;;;5.24;83.94
78299;BME280;67556;55.656;12.590;2023-03-21T08:36:31;101440.53;;;5.15;84.19
78299;BME280;67556;55.656;12.590;2023-03-21T08:38:59;101439.63;;;5.14;84.10
78299;BME280;67556;55.656;12.590;2023-03-21T08:41:36;101440.53;;;5.15;84.29
78299;BME280;67556;55.656;12.590;2023-03-21T08:44:04;101435.13;;;5.13;84.66
78299;BME280;67556;55.656;12.590;2023-03-21T08:46:32;101425.16;;;5.09;85.20
78299;BME280;67556;55.656;12.590;2023-03-21T08:49:03;101447.19;;;5.10;85.00
78299;BME280;67556;55.656;12.590;2023-03-21T08:51:31;101435.13;;;5.00;85.35
78299;BME280;67556;55.656;12.590;2023-03-21T08:54:04;101442.72;;;4.95;85.27
78299;BME280;67556;55.656;12.590;2023-03-21T08:56:30;101421.91;;;4.87;85.28
78299;BME280;67556;55.656;12.590;2023-03-21T08:58:57;101443.34;;;5.05;85.30
78299;BME280;67556;55.656;12.590;2023-03-21T09:01:32;101426.19;;;5.11;84.64
78299;BME280;67556;55.656;12.590;2023-03-21T09:03:58;101439.41;;;5.11;84.41
78299;BME280;67556;55.656;12.590;2023-03-21T09:06:27;101440.22;;;5.23;84.51
78299;BME280;67556;55.656;12.590;2023-03-21T09:08:55;101439.72;;;5.29;84.69
78299;BME280;67556;55.656;12.590;2023-03-21T09:11:22;101428.03;;;5.25;84.46
78299;BME280;67556;55.656;12.590;2023-03-21T09:13:48;101432.47;;;5.26;84.64
78299;BME280;67556;55.656;12.590;2023-03-21T09:16:16;101423.34;;;5.21;84.49
78299;BME280;67556;55.656;12.590;2023-03-21T09:18:44;101436.38;;;5.18;84.76
78299;BME280;67556;55.656;12.590;2023-03-21T09:21:14;101430.66;;;5.12;84.47
78299;BME280;67556;55.656;12.590;2023-03-21T09:23:43;101429.06;;;5.14;84.20
78299;BME280;67556;55.656;12.590;2023-03-21T09:26:10;101421.53;;;5.20;84.09
78299;BME280;67556;55.656;12.590;2023-03-21T09:28:39;101416.97;;;5.31;83.97
78299;BME280;67556;55.656;12.590;2023-03-21T09:31:07;101400.00;;;5.28;83.45
78299;BME280;67556;55.656;12.590;2023-03-21T09:33:35;101418.88;;;5.47;83.16
78299;BME280;67556;55.656;12.590;2023-03-21T09:36:03;101424.28;;;5.48;83.60
78299;BME280;67556;55.656;12.590;2023-03-21T09:38:38;101424.06;;;5.45;83.84
78299;BME280;67556;55.656;12.590;2023-03-21T09:41:19;101414.50;;;5.34;83.45
78299;BME280;67556;55.656;12.590;2023-03-21T09:44:00;101412.47;;;5.30;83.49
78299;BME280;67556;55.656;12.590;2023-03-21T09:46:35;101418.06;;;5.35;83.66
78299;BME280;67556;55.656;12.590;2023-03-21T09:49:10;101415.72;;;5.39;84.20
78299;BME280;67556;55.656;12.590;2023-03-21T09:51:43;101408.81;;;5.41;84.42
78299;BME280;67556;55.656;12.590;2023-03-21T09:54:17;101407.91;;;5.41;84.25
78299;BME280;67556;55.656;12.590;2023-03-21T09:56:48;101412.00;;;5.36;84.72
78299;BME280;67556;55.656;12.590;2023-03-21T09:59:21;101412.97;;;5.51;84.51
78299;BME280;67556;55.656;12.590;2023-03-21T10:01:51;101414.38;;;5.59;83.99
78299;BME280;67556;55.656;12.590;2023-03-21T10:04:19;101409.09;;;5.59;84.53
78299;BME280;67556;55.656;12.590;2023-03-21T10:06:54;101415.94;;;5.42;84.70
78299;BME280;67556;55.656;12.590;2023-03-21T10:09:22;101418.47;;;5.41;84.85
78299;BME280;67556;55.656;12.590;2023-03-21T10:11:53;101417.75;;;5.43;84.72
78299;BME280;67556;55.656;12.590;2023-03-21T10:14:27;101405.03;;;5.51;84.55
78299;BME280;67556;55.656;12.590;2023-03-21T10:16:57;101404.66;;;5.45;84.91
78299;BME280;67556;55.656;12.590;2023-03-21T10:19:26;101401.19;;;5.46;85.38
78299;BME280;67556;55.656;12.590;2023-03-21T10:21:53;101403.75;;;5.44;85.80
78299;BME280;67556;55.656;12.590;2023-03-21T10:24:21;101403.63;;;5.43;85.99
78299;BME280;67556;55.656;12.590;2023-03-21T10:26:49;101401.19;;;5.46;85.92
78299;BME280;67556;55.656;12.590;2023-03-21T10:29:39;101400.38;;;5.47;86.46
78299;BME280;67556;55.656;12.590;2023-03-21T10:32:08;101398.97;;;5.52;86.07
78299;BME280;67556;55.656;12.590;2023-03-21T10:34:38;101392.44;;;5.47;86.48
78299;BME280;67556;55.656;12.590;2023-03-21T10:37:06;101389.03;;;5.48;86.86
78299;BME280;67556;55.656;12.590;2023-03-21T10:39:41;101389.09;;;5.49;86.33
78299;BME280;67556;55.656;12.590;2023-03-21T10:42:15;101387.88;;;5.58;86.50
78299;BME280;67556;55.656;12.590;2023-03-21T10:44:47;101385.44;;;5.47;86.64
78299;BME280;67556;55.656;12.590;2023-03-21T10:47:18;101386.25;;;5.46;86.90
78299;BME280;67556;55.656;12.590;2023-03-21T10:49:46;101379.44;;;5.50;87.12
78299;BME280;67556;55.656;12.590;2023-03-21T10:52:18;101384.31;;;5.57;87.04
78299;BME280;67556;55.656;12.590;2023-03-21T10:54:46;101381.19;;;5.49;87.50
78299;BME280;67556;55.656;12.590;2023-03-21T10:57:17;101377.09;;;5.55;87.65
78299;BME280;67556;55.656;12.590;2023-03-21T10:59:52;101373.94;;;5.60;88.06
78299;BME280;67556;55.656;12.590;2023-03-21T11:02:30;101374.53;;;5.56;87.57
78299;BME280;67556;55.656;12.590;2023-03-21T11:05:03;101370.28;;;5.58;87.61
78299;BME280;67556;55.656;12.590;2023-03-21T11:07:30;101366.44;;;5.53;87.18
78299;BME280;67556;55.656;12.590;2023-03-21T11:09:58;101351.28;;;5.50;87.95
78299;BME280;67556;55.656;12.590;2023-03-21T11:12:30;101358.56;;;5.40;88.33
78299;BME280;67556;55.656;12.590;2023-03-21T11:15:14;101351.41;;;5.39;88.61
78299;BME280;67556;55.656;12.590;2023-03-21T11:17:51;101357.09;;;5.45;88.67
78299;BME280;67556;55.656;12.590;2023-03-21T11:20:18;101349.28;;;5.46;88.15
78299;BME280;67556;55.656;12.590;2023-03-21T11:22:46;101346.00;;;5.50;88.89
78299;BME280;67556;55.656;12.590;2023-03-21T11:25:23;101350.75;;;5.56;88.68
78299;BME280;67556;55.656;12.590;2023-03-21T11:27:52;101343.88;;;5.58;88.49
78299;BME280;67556;55.656;12.590;2023-03-21T11:30:25;101347.41;;;5.59;88.58
78299;BME280;67556;55.656;12.590;2023-03-21T11:33:00;101344.25;;;5.64;88.58
78299;BME280;67556;55.656;12.590;2023-03-21T11:35:33;101335.31;;;5.62;87.94
78299;BME280;67556;55.656;12.590;2023-03-21T11:38:00;101332.97;;;5.67;88.44
78299;BME280;67556;55.656;12.590;2023-03-21T11:40:28;101339.84;;;5.78;88.16
78299;BME280;67556;55.656;12.590;2023-03-21T11:42:59;101336.66;;;5.84;88.15
78299;BME280;67556;55.656;12.590;2023-03-21T11:45:30;101334.38;;;5.90;88.33
78299;BME280;67556;55.656;12.590;2023-03-21T11:48:10;101326.47;;;5.90;87.71
78299;BME280;67556;55.656;12.590;2023-03-21T11:50:46;101333.91;;;5.95;88.41
78299;BME280;67556;55.656;12.590;2023-03-21T11:53:23;101322.53;;;5.83;88.26
78299;BME280;67556;55.656;12.590;2023-03-21T11:56:03;101321.28;;;5.91;87.87
78299;BME280;67556;55.656;12.590;2023-03-21T11:58:32;101323.41;;;5.97;87.76
78299;BME280;67556;55.656;12.590;2023-03-21T12:01:15;101307.03;;;6.03;87.99
78299;BME280;67556;55.656;12.590;2023-03-21T12:03:58;101318.34;;;6.00;87.96
78299;BME280;67556;55.656;12.590;2023-03-21T12:06:35;101300.09;;;6.05;88.21
78299;BME280;67556;55.656;12.590;2023-03-21T12:09:20;101305.03;;;6.13;88.08
78299;BME280;67556;55.656;12.590;2023-03-21T12:12:04;101305.94;;;6.14;87.96
78299;BME280;67556;55.656;12.590;2023-03-21T12:14:45;101298.84;;;6.13;88.25
78299;BME280;67556;55.656;12.590;2023-03-21T12:17:23;101295.16;;;6.11;88.26
78299;BME280;67556;55.656;12.590;2023-03-21T12:20:13;101289.88;;;6.11;87.98
78299;BME280;67556;55.656;12.590;2023-03-21T12:22:50;101298.22;;;6.17;87.72
78299;BME280;67556;55.656;12.590;2023-03-21T12:25:25;101289.72;;;6.22;88.29
78299;BME280;67556;55.656;12.590;2023-03-21T12:28:00;101290.09;;;6.29;87.80
78299;BME280;67556;55.656;12.590;2023-03-21T12:30:32;101287.34;;;6.12;87.51
78299;BME280;67556;55.656;12.590;2023-03-21T12:33:13;101266.00;;;6.09;88.06
78299;BME280;67556;55.656;12.590;2023-03-21T12:35:53;101277.13;;;6.18;87.96
78299;BME280;67556;55.656;12.590;2023-03-21T12:38:33;101280.25;;;6.26;87.40
78299;BME280;67556;55.656;12.590;2023-03-21T12:41:22;101275.78;;;6.25;87.94
78299;BME280;67556;55.656;12.590;2023-03-21T12:43:55;101271.69;;;6.15;88.01
78299;BME280;67556;55.656;12.590;2023-03-21T12:46:28;101270.22;;;6.20;88.40
78299;BME280;67556;55.656;12.590;2023-03-21T12:49:00;101267.84;;;6.25;87.99
78299;BME280;67556;55.656;12.590;2023-03-21T12:51:29;101256.69;;;6.31;87.80
78299;BME280;67556;55.656;12.590;2023-03-21T12:54:02;101260.72;;;6.39;87.71
78299;BME280;67556;55.656;12.590;2023-03-21T12:56:34;101256.34;;;6.39;87.47
78299;BME280;67556;55.656;12.590;2023-03-21T12:59:10;101247.03;;;6.46;87.72
78299;BME280;67556;55.656;12.590;2023-03-21T13:01:41;101243.38;;;6.44;88.09
78299;BME280;67556;55.656;12.590;2023-03-21T13:04:27;101230.00;;;6.41;87.53
78299;BME280;67556;55.656;12.590;2023-03-21T13:06:59;101237.63;;;6.51;87.94
78299;BME280;67556;55.656;12.590;2023-03-21T13:09:32;101235.69;;;6.63;87.87